Time;durP1;ratioP1;P1;durP2;ratioP2;P2;SDS_P1;SDS_P2;PMS_P1;PMS_P2;Temp;Humidity;BMP_temperature;BMP_pressure;BME280_temperature;BME280_humidity;BME280_pressure;Samples;Min_cycle;Max_cycle;Signal;HPM_P1;HPM_P2
2021/05/09 00:00:22;;;;;;;4.63;2.60;;;8.40;1.00;;;;;;4997024;28;20412;-76
2021/05/09 00:02:48;;;;;;;3.90;2.70;;;;;;;;;;4996497;28;20420;-76
2021/05/09 00:05:25;;;;;;;3.87;2.50;;;;;;;;;;4996482;28;20880;-75
2021/05/09 00:07:51;;;;;;;5.57;3.00;;;;;;;;;;4994461;28;20467;-76
2021/05/09 00:10:19;;;;;;;6.40;3.10;;;8.40;1.00;;;;;;4996128;28;20811;-76
2021/05/09 00:12:49;;;;;;;4.60;3.00;;;;;;;;;;4996228;28;20457;-77
2021/05/09 00:15:50;;;;;;;13.00;2.83;;;8.30;1.00;;;;;;4996392;28;20914;-78
2021/05/09 00:18:26;;;;;;;2.80;2.30;;;8.20;1.00;;;;;;5003092;28;20465;-78
2021/05/09 00:20:56;;;;;;;2.90;2.70;;;8.20;1.00;;;;;;4982550;28;20455;-78
2021/05/09 00:23:23;;;;;;;5.60;2.50;;;8.20;1.00;;;;;;4996397;28;20421;-78
2021/05/09 00:25:49;;;;;;;6.80;3.17;;;;;;;;;;4984425;28;20437;-78
2021/05/09 00:28:15;;;;;;;3.93;3.10;;;8.10;1.00;;;;;;4977235;28;20404;-78
2021/05/09 00:30:49;;;;;;;4.90;2.70;;;8.00;1.00;;;;;;4976898;28;20398;-78
2021/05/09 00:33:25;;;;;;;6.13;3.03;;;8.00;1.00;;;;;;4994715;28;20683;-78
2021/05/09 00:35:51;;;;;;;4.57;3.00;;;;;;;;;;4994822;28;20978;-78
2021/05/09 00:38:20;;;;;;;4.17;3.20;;;;;;;;;;4995897;28;20445;-78
2021/05/09 00:40:49;;;;;;;6.00;3.10;;;8.00;1.00;;;;;;4994866;28;20781;-78
2021/05/09 00:43:19;;;;;;;5.73;2.87;;;7.90;1.00;;;;;;4996297;28;20746;-78
2021/05/09 00:45:49;;;;;;;4.67;2.70;;;7.60;1.00;;;;;;4994408;28;20942;-78
2021/05/09 00:48:25;;;;;;;3.33;3.00;;;7.80;1.00;;;;;;4995984;28;20417;-78
2021/05/09 00:50:51;;;;;;;5.83;3.37;;;7.70;1.00;;;;;;4995374;28;21010;-78
2021/05/09 00:53:19;;;;;;;6.90;3.00;;;7.70;1.00;;;;;;4994072;28;20559;-78
2021/05/09 00:55:46;;;;;;;5.47;2.90;;;;;;;;;;4994807;28;20261;-78
2021/05/09 00:58:13;;;;;;;3.33;2.57;;;7.60;1.00;;;;;;4994969;28;20474;-79
2021/05/09 01:00:44;;;;;;;5.93;3.10;;;7.60;1.00;;;;;;4995842;28;20405;-78
2021/05/09 01:03:11;;;;;;;5.03;3.07;;;;;;;;;;4995813;28;20410;-76
2021/05/09 01:05:43;;;;;;;6.87;3.67;;;;;;;;;;4995620;28;20866;-76
2021/05/09 01:08:13;;;;;;;3.87;3.17;;;7.50;1.00;;;;;;4995244;28;20417;-76
2021/05/09 01:10:49;;;;;;;6.03;3.77;;;7.50;1.00;;;;;;4995602;28;20776;-76
2021/05/09 01:13:21;;;;;;;4.70;3.17;;;;;;;;;;4995685;28;20444;-78
2021/05/09 01:15:49;;;;;;;4.87;2.50;;;;;;;;;;4995832;28;20428;-78
2021/05/09 01:18:43;;;;;;;8.77;2.80;;;7.40;1.00;;;;;;4991045;28;20452;-78
2021/05/09 01:21:09;;;;;;;3.13;2.83;;;7.30;1.00;;;;;;4988051;28;20409;-78
2021/05/09 01:23:49;;;;;;;5.33;3.10;;;;;;;;;;4995645;28;20907;-78
2021/05/09 01:26:49;;;;;;;7.03;3.40;;;;;;;;;;4994995;28;20165;-78
2021/05/09 01:29:20;;;;;;;4.43;3.20;;;7.40;1.00;;;;;;4995606;28;20451;-76
2021/05/09 01:31:47;;;;;;;4.30;3.17;;;7.40;1.00;;;;;;4995215;28;20413;-76
2021/05/09 01:34:13;;;;;;;9.10;3.70;;;7.30;1.00;;;;;;4995166;28;20445;-76
2021/05/09 01:36:39;;;;;;;9.03;3.70;;;6.90;1.00;;;;;;4995259;28;20405;-76
2021/05/09 01:39:07;;;;;;;5.87;3.80;;;;;;;;;;4994888;28;20510;-76
2021/05/09 01:41:34;;;;;;;8.90;3.53;;;;;;;;;;4994760;28;20193;-76
2021/05/09 01:44:43;;;;;;;8.13;3.13;;;7.10;1.00;;;;;;4995321;28;20245;-76
2021/05/09 01:47:20;;;;;;;4.73;3.53;;;;;;;;;;4995020;28;20427;-76
2021/05/09 01:49:56;;;;;;;6.53;4.20;;;;;;;;;;4994405;28;20915;-76
2021/05/09 01:52:22;;;;;;;8.23;3.90;;;;;;;;;;4995169;28;20401;-76
2021/05/09 01:55:03;;;;;;;5.30;3.60;;;7.10;1.00;;;;;;4994830;28;20424;-76
2021/05/09 01:57:30;;;;;;;3.33;2.77;;;;;;;;;;4995114;28;20398;-75
2021/05/09 02:00:01;;;;;;;6.70;3.50;;;;;;;;;;4994985;28;20397;-78
2021/05/09 02:02:38;;;;;;;4.97;3.13;;;;;;;;;;4994931;28;20484;-78
2021/05/09 02:05:19;;;;;;;4.23;3.27;;;;;;;;;;4994358;28;20819;-78
2021/05/09 02:07:49;;;;;;;7.70;3.37;;;;;;;;;;4994969;28;20876;-78
2021/05/09 02:10:49;;;;;;;3.70;2.80;;;7.00;1.00;;;;;;4985915;28;20503;-78
2021/05/09 02:13:32;;;;;;;4.30;3.33;;;7.00;1.00;;;;;;5009683;28;20448;-78
2021/05/09 02:15:58;;;;;;;8.20;3.40;;;6.80;1.00;;;;;;4994034;28;20397;-78
2021/05/09 02:19:01;;;;;;;4.43;3.03;;;6.90;1.00;;;;;;4984324;28;20433;-78
2021/05/09 02:21:32;;;;;;;3.20;2.90;;;;;;;;;;4994440;28;20188;-79
2021/05/09 02:24:01;;;;;;;6.60;3.07;;;;;;;;;;4994672;28;20389;-78
2021/05/09 02:26:38;;;;;;;5.37;2.50;;;;;;;;;;4980577;28;20901;-78
2021/05/09 02:29:08;;;;;;;4.90;3.20;;;;;;;;;;4994644;28;20499;-76
2021/05/09 02:31:49;;;;;;;5.10;3.27;;;;;;;;;;4994290;28;20394;-76
2021/05/09 02:34:20;;;;;;;3.70;2.70;;;;;;;;;;4994569;28;20963;-76
2021/05/09 02:36:46;;;;;;;4.37;3.30;;;;;;;;;;4994271;28;20727;-76
2021/05/09 02:39:14;;;;;;;3.10;2.80;;;;;;;;;;4993807;28;20401;-76
2021/05/09 02:41:43;;;;;;;5.73;3.10;;;;;;;;;;4993903;28;20402;-76
2021/05/09 02:44:13;;;;;;;5.50;3.83;;;;;;;;;;4994599;28;20401;-76
2021/05/09 02:46:50;;;;;;;5.17;3.20;;;;;;;;;;4993586;28;20417;-76
2021/05/09 02:49:20;;;;;;;5.28;3.05;;;;;;;;;;4992785;28;20931;-76
2021/05/09 02:51:50;;;;;;;3.93;3.33;;;;;;;;;;4994268;28;20213;-76
2021/05/09 02:54:32;;;;;;;12.03;3.80;;;;;;;;;;4994041;28;20547;-76
2021/05/09 02:57:14;;;;;;;6.60;3.47;;;;;;;;;;4993537;28;20413;-76
2021/05/09 02:59:40;;;;;;;2.87;2.60;;;;;;;;;;4994410;28;20393;-76
2021/05/09 03:02:06;;;;;;;6.73;3.53;;;;;;;;;;4993903;28;20476;-76
2021/05/09 03:04:43;;;;;;;3.90;2.97;;;;;;;;;;4993997;28;20453;-76
2021/05/09 03:07:20;;;;;;;4.00;3.20;;;;;;;;;;4993920;28;20951;-76
2021/05/09 03:09:45;;;;;;;4.07;3.00;;;7.20;1.00;;;;;;4994152;28;20403;-77
2021/05/09 03:12:11;;;;;;;3.80;3.03;;;;;;;;;;5008604;28;20528;-76
2021/05/09 03:14:37;;;;;;;6.83;3.30;;;7.20;1.00;;;;;;4994304;28;20178;-76
2021/05/09 03:17:03;;;;;;;5.60;3.13;;;;;;;;;;4990600;28;20439;-76
2021/05/09 03:19:31;;;;;;;3.97;3.03;;;;;;;;;;4977713;28;20277;-76
2021/05/09 03:22:02;;;;;;;3.37;3.07;;;;;;;;;;4987753;28;20841;-76
2021/05/09 03:24:33;;;;;;;3.60;2.50;;;;;;;;;;4993865;28;20397;-76
2021/05/09 03:27:01;;;;;;;3.53;3.20;;;7.20;1.00;;;;;;4974276;28;20806;-76
2021/05/09 03:29:43;;;;;;;5.33;3.43;;;;;;;;;;4974903;28;20390;-76
2021/05/09 03:32:19;;;;;;;3.87;2.80;;;;;;;;;;4990181;28;20425;-77
2021/05/09 03:34:56;;;;;;;6.33;2.93;;;;;;;;;;5008589;28;20841;-76
2021/05/09 03:37:43;;;;;;;3.30;2.67;;;7.30;1.00;;;;;;4993709;28;20459;-76
2021/05/09 03:40:15;;;;;;;3.60;3.17;;;7.20;1.00;;;;;;4992959;28;20821;-76
2021/05/09 03:42:42;;;;;;;5.40;3.47;;;7.20;1.00;;;;;;4996441;28;21015;-76
2021/05/09 03:45:14;;;;;;;3.87;2.93;;;;;;;;;;4995876;28;20844;-76
2021/05/09 03:47:50;;;;;;;4.50;3.23;;;;;;;;;;4997393;28;20393;-76
2021/05/09 03:50:20;;;;;;;10.10;3.57;;;;;;;;;;4997280;28;20892;-77
2021/05/09 03:52:50;;;;;;;11.10;3.80;;;;;;;;;;4996777;28;20457;-76
2021/05/09 03:55:20;;;;;;;8.10;3.70;;;;;;;;;;4979435;28;20988;-76
2021/05/09 03:57:49;;;;;;;7.23;3.70;;;;;;;;;;4997279;28;20389;-76
2021/05/09 04:00:20;;;;;;;5.57;3.00;;;;;;;;;;4993069;28;20896;-78
2021/05/09 04:02:46;;;;;;;4.23;3.27;;;;;;;;;;4996822;28;20417;-78
2021/05/09 04:05:20;;;;;;;6.10;3.80;;;;;;;;;;4996346;28;20397;-78
2021/05/09 04:07:50;;;;;;;9.73;3.60;;;;;;;;;;5011706;28;20423;-78
2021/05/09 04:10:19;;;;;;;4.10;3.40;;;;;;;;;;4997108;28;20392;-78
2021/05/09 04:12:50;;;;;;;5.03;3.77;;;;;;;;;;4996504;28;20962;-78
2021/05/09 04:15:20;;;;;;;4.97;3.20;;;;;;;;;;4997345;28;20992;-76
2021/05/09 04:17:49;;;;;;;6.97;3.77;;;;;;;;;;4990060;28;20857;-76
2021/05/09 04:20:20;;;;;;;10.23;3.63;;;;;;;;;;4980166;28;20422;-76
2021/05/09 04:22:50;;;;;;;3.57;2.97;;;;;;;;;;4976978;28;20416;-76
2021/05/09 04:25:19;;;;;;;10.17;3.70;;;;;;;;;;4994920;28;20424;-76
2021/05/09 04:28:13;;;;;;;13.63;3.33;;;7.80;1.00;;;;;;4995014;28;20448;-76
2021/05/09 04:30:39;;;;;;;6.03;3.13;;;;;;;;;;4977213;28;20398;-76
2021/05/09 04:33:08;;;;;;;3.57;2.77;;;;;;;;;;4977205;28;20525;-76
2021/05/09 04:35:41;;;;;;;3.67;3.03;;;7.90;1.00;;;;;;4975486;28;20456;-77
2021/05/09 04:38:08;;;;;;;3.60;2.87;;;;;;;;;;4994459;28;20838;-76
2021/05/09 04:40:34;;;;;;;5.07;3.23;;;;;;;;;;4996231;28;20976;-79
2021/05/09 04:43:17;;;;;;;6.77;3.30;;;8.10;1.00;;;;;;4995948;28;20804;-79
2021/05/09 04:45:47;;;;;;;5.27;2.87;;;;;;;;;;5010847;28;20420;-79
2021/05/09 04:48:26;;;;;;;5.83;3.50;;;;;;;;;;4995499;28;20397;-79
2021/05/09 04:51:25;;;;;;;5.47;3.20;;;8.30;1.00;;;;;;4976370;28;20923;-79
2021/05/09 04:53:51;;;;;;;6.43;4.60;;;;;;;;;;4975624;28;20953;-75
2021/05/09 04:56:18;;;;;;;6.70;3.30;;;;;;;;;;4976091;28;20424;-75
2021/05/09 04:58:50;;;;;;;6.60;3.40;;;;;;;;;;4994420;28;20838;-75
2021/05/09 05:01:43;;;;;;;9.57;3.63;;;8.60;1.00;;;;;;4995581;28;20908;-77
2021/05/09 05:04:55;;;;;;;3.27;2.97;;;8.70;1.00;;;;;;4995707;28;20467;-76
2021/05/09 05:07:21;;;;;;;4.83;3.10;;;;;;;;;;4994493;28;20907;-76
2021/05/09 05:10:37;;;;;;;4.30;2.73;;;8.90;1.00;;;;;;4995324;28;20397;-76
2021/05/09 05:13:27;;;;;;;4.90;3.20;;;9.10;1.00;;;;;;4995651;28;20448;-82
2021/05/09 05:16:25;;;;;;;3.33;3.00;;;;;;;;;;4977013;28;20434;-82
2021/05/09 05:19:31;;;;;;;6.70;3.40;;;9.40;1.00;;;;;;4980065;28;20408;-84
2021/05/09 05:25:19;;;;;;;5.40;3.73;;;;;;;;;;4976060;28;20473;-78
2021/05/09 05:27:45;;;;;;;4.53;3.50;;;;;;;;;;4979604;28;20888;-77
2021/05/09 05:30:14;;;;;;;6.97;3.00;;;;;;;;;;4994269;28;20404;-76
2021/05/09 05:32:41;;;;;;;7.17;3.33;;;;;;;;;;4994663;28;20491;-77
2021/05/09 05:35:14;;;;;;;20.33;4.27;;;;;;;;;;4988926;28;20428;-77
2021/05/09 05:37:44;;;;;;;14.20;3.27;;;;;;;;;;4989702;28;20430;-77
2021/05/09 05:40:20;;;;;;;3.80;2.73;;;;;;;;;;4990637;28;20416;-77
2021/05/09 05:43:07;;;;;;;3.40;3.10;;;10.90;1.00;;;;;;4993370;28;20454;-77
2021/05/09 05:46:03;;;;;;;4.67;2.67;;;11.10;1.00;;;;;;4995187;28;20393;-76
2021/05/09 05:51:55;;;;;;;8.10;2.80;;;11.80;1.00;;;;;;4995333;28;20376;-83
2021/05/09 05:57:43;;;;;;;5.53;2.77;;;;;;;;;;4995148;28;20396;-74
2021/05/09 06:00:09;;;;;;;8.83;3.00;;;11.90;1.00;;;;;;4994501;28;20417;-74
2021/05/09 06:02:38;;;;;;;4.60;2.53;;;;;;;;;;4995168;28;20444;-75
2021/05/09 06:05:08;;;;;;;7.93;2.80;;;12.10;1.00;;;;;;4988158;28;20444;-72
2021/05/09 06:07:37;;;;;;;4.93;2.43;;;12.30;1.00;;;;;;4994582;28;20428;-74
2021/05/09 06:10:37;;;;;;;3.73;2.53;;;12.20;1.00;;;;;;4976058;28;20826;-76
2021/05/09 06:13:07;;;;;;;5.10;2.50;;;12.50;1.00;;;;;;4982681;28;20820;-76
2021/05/09 06:15:33;;;;;;;3.07;2.50;;;12.60;1.00;;;;;;4990566;28;20515;-75
2021/05/09 06:18:02;;;;;;;3.33;2.10;;;;;;;;;;4993892;28;20453;-76
2021/05/09 06:21:01;;;;;;;7.87;3.00;;;13.10;1.00;;;;;;4992658;28;20296;-76
2021/05/09 06:23:31;;;;;;;4.17;2.63;;;13.10;1.00;;;;;;4990852;28;20409;-76
2021/05/09 06:26:07;;;;;;;2.67;2.43;;;13.60;1.00;;;;;;4990065;28;20432;-76
2021/05/09 06:29:01;;;;;;;4.20;2.23;;;13.60;1.00;;;;;;4994243;28;20428;-76
2021/05/09 06:31:31;;;;;;;2.50;1.90;;;13.70;1.00;;;;;;4994563;28;20824;-74
2021/05/09 06:34:02;;;;;;;7.50;2.60;;;13.90;1.00;;;;;;4986731;28;20473;-74
2021/05/09 06:36:31;;;;;;;1.97;1.77;;;14.10;1.00;;;;;;4992338;28;20403;-73
2021/05/09 06:39:14;;;;;;;4.33;1.80;;;;;;;;;;4978392;28;20453;-74
2021/05/09 06:41:39;;;;;;;2.30;1.67;;;14.30;1.00;;;;;;4989165;28;20772;-74
2021/05/09 06:44:42;;;;;;;4.20;2.17;;;14.40;1.00;;;;;;4974881;28;20486;-74
2021/05/09 06:47:19;;;;;;;2.63;2.00;;;14.60;1.00;;;;;;4975809;28;20228;-76
2021/05/09 06:50:19;;;;;;;2.47;2.00;;;14.90;1.00;;;;;;4974692;28;20393;-76
2021/05/09 06:52:45;;;;;;;2.97;1.90;;;15.10;1.00;;;;;;4996828;28;20801;-76
2021/05/09 06:55:12;;;;;;;3.17;2.33;;;15.40;1.00;;;;;;4994310;28;20433;-76
2021/05/09 06:57:39;;;;;;;2.07;1.80;;;15.50;1.00;;;;;;4993426;28;20180;-78
2021/05/09 07:00:15;;;;;;;5.13;2.30;;;15.50;1.00;;;;;;5008944;28;20421;-78
2021/05/09 07:02:50;;;;;;;2.47;1.90;;;;;;;;;;4993924;28;20515;-76
2021/05/09 07:05:49;;;;;;;4.23;2.20;;;15.90;1.00;;;;;;4993075;28;20460;-76
2021/05/09 07:08:15;;;;;;;2.00;1.80;;;;;;;;;;4993685;28;20417;-75
2021/05/09 07:10:43;;;;;;;1.80;1.70;;;16.20;1.00;;;;;;4993923;28;20857;-75
2021/05/09 07:13:31;;;;;;;2.70;1.70;;;16.30;1.00;;;;;;4993603;28;20804;-75
2021/05/09 07:15:58;;;;;;;48.70;5.47;;;16.50;1.00;;;;;;4989875;28;20521;-76
2021/05/09 07:18:33;;;;;;;2.10;1.90;;;16.70;1.00;;;;;;5012061;28;20400;-78
2021/05/09 07:21:28;;;;;;;3.70;1.73;;;16.90;1.00;;;;;;4992244;28;20435;-77
2021/05/09 07:23:54;;;;;;;3.00;1.80;;;17.10;1.00;;;;;;4996404;28;20752;-80
2021/05/09 07:26:20;;;;;;;2.40;1.70;;;;;;;;;;4996930;28;20431;-78
2021/05/09 07:28:46;;;;;;;2.50;1.50;;;17.30;1.00;;;;;;4997807;28;20485;-77
2021/05/09 07:31:14;;;;;;;3.90;1.80;;;;;;;;;;4997770;28;20402;-75
2021/05/09 07:33:41;;;;;;;4.43;1.70;;;;;;;;;;4989838;28;20440;-77
2021/05/09 07:36:43;;;;;;;2.20;1.70;;;17.70;1.00;;;;;;4986319;28;20419;-77
2021/05/09 07:39:13;;;;;;;2.23;1.67;;;18.00;1.00;;;;;;4994753;28;20407;-77
2021/05/09 07:41:39;;;;;;;8.83;2.00;;;18.10;1.00;;;;;;4996383;28;20400;-78
2021/05/09 07:44:06;;;;;;;5.13;1.90;;;18.20;1.00;;;;;;4996760;28;20401;-80
2021/05/09 07:46:55;;;;;;;1.47;1.37;;;18.30;1.00;;;;;;5012003;28;20193;-76
2021/05/09 07:50:01;;;;;;;3.33;1.47;;;18.30;1.00;;;;;;4995732;28;20397;-79
2021/05/09 07:52:31;;;;;;;4.50;1.57;;;18.40;1.00;;;;;;4996929;28;20371;-79
2021/05/09 07:55:19;;;;;;;2.67;2.03;;;18.70;1.00;;;;;;4996949;28;20830;-78
2021/05/09 07:58:25;;;;;;;3.13;1.90;;;18.90;1.00;;;;;;4995068;28;20425;-79
2021/05/09 08:00:55;;;;;;;2.37;1.90;;;19.10;1.00;;;;;;4996758;28;20421;-78
2021/05/09 08:04:13;;;;;;;2.40;1.80;;;19.20;1.00;;;;;;5012179;28;20433;-79
2021/05/09 08:07:01;;;;;;;7.80;2.13;;;19.30;1.00;;;;;;4994717;28;20487;-80
2021/05/09 08:09:31;;;;;;;10.53;1.97;;;19.50;1.00;;;;;;4994827;28;20419;-80
2021/05/09 08:12:19;;;;;;;3.73;2.00;;;19.60;1.00;;;;;;4996559;28;20404;-79
2021/05/09 08:15:07;;;;;;;3.03;1.47;;;19.70;1.00;;;;;;4995953;28;20462;-79
2021/05/09 08:17:38;;;;;;;7.97;2.30;;;;;;;;;;4983991;28;20852;-78
2021/05/09 08:20:38;;;;;;;1.60;1.50;;;20.00;1.00;;;;;;4993924;28;20463;-79
2021/05/09 08:23:07;;;;;;;4.83;1.93;;;20.10;1.00;;;;;;4989790;28;20515;-76
2021/05/09 08:25:38;;;;;;;1.93;1.30;;;20.30;1.00;;;;;;4992905;28;20425;-76
2021/05/09 08:28:13;;;;;;;5.23;1.80;;;20.50;1.00;;;;;;4990316;28;20500;-82
2021/05/09 08:30:39;;;;;;;6.67;1.97;;;20.70;1.00;;;;;;4996363;28;20389;-81
2021/05/09 08:33:05;;;;;;;5.27;2.13;;;20.80;1.00;;;;;;4995755;28;20455;-81
2021/05/09 08:35:31;;;;;;;13.40;2.70;;;;;;;;;;4992229;28;20166;-78
2021/05/09 08:37:57;;;;;;;19.03;2.53;;;21.10;1.00;;;;;;4987675;28;20404;-75
2021/05/09 08:40:26;;;;;;;16.63;2.90;;;;;;;;;;4983382;28;20444;-74
2021/05/09 08:42:52;;;;;;;8.57;2.30;;;21.40;1.00;;;;;;4984346;28;20187;-75
2021/05/09 08:45:19;;;;;;;4.43;2.07;;;21.60;1.00;;;;;;4993418;28;20524;-75
2021/05/09 08:47:45;;;;;;;6.43;1.83;;;21.60;1.00;;;;;;4988118;28;20435;-77
2021/05/09 08:50:31;;;;;;;6.97;1.60;;;;;;;;;;4984837;28;20912;-77
2021/05/09 08:53:08;;;;;;;5.03;1.90;;;21.90;1.00;;;;;;4995798;28;20529;-77
2021/05/09 08:55:38;;;;;;;9.23;2.27;;;22.00;1.00;;;;;;4978474;28;20917;-75
2021/05/09 08:58:03;;;;;;;8.53;2.33;;;22.20;1.00;;;;;;4981990;28;20418;-75
2021/05/09 09:00:43;;;;;;;16.77;2.13;;;22.20;1.00;;;;;;4995954;28;20415;-76
2021/05/09 09:03:13;;;;;;;4.50;1.97;;;22.40;1.00;;;;;;4996077;28;20705;-76
2021/05/09 09:06:04;;;;;;;4.17;1.70;;;22.40;1.00;;;;;;4990710;28;20437;-76
2021/05/09 09:08:48;;;;;;;2.47;1.50;;;22.60;1.00;;;;;;4978981;28;20439;-77
2021/05/09 09:11:23;;;;;;;1.60;1.50;;;22.80;1.00;;;;;;4975968;28;20391;-76
2021/05/09 09:14:07;;;;;;;5.03;1.90;;;22.90;1.00;;;;;;4986027;28;20460;-76
2021/05/09 09:16:33;;;;;;;2.90;1.70;;;23.00;1.00;;;;;;4987811;28;20433;-77
2021/05/09 09:19:14;;;;;;;15.70;2.63;;;23.10;1.00;;;;;;4993421;28;20501;-76
2021/05/09 09:21:41;;;;;;;2.80;1.70;;;23.30;1.00;;;;;;4992064;28;20551;-76
2021/05/09 09:24:10;;;;;;;4.00;1.67;;;;;;;;;;4994546;28;20419;-76
2021/05/09 09:26:50;;;;;;;3.00;1.60;;;23.40;1.00;;;;;;4995004;28;20411;-76
2021/05/09 09:29:24;;;;;;;2.80;1.60;;;23.50;1.00;;;;;;4994637;28;20412;-77
2021/05/09 09:32:09;;;;;;;1.60;1.50;;;23.50;1.00;;;;;;4975863;28;20393;-77
2021/05/09 09:34:50;;;;;;;2.00;1.47;;;23.70;1.00;;;;;;4987143;28;20450;-77
2021/05/09 09:37:37;;;;;;;1.90;1.43;;;23.90;1.00;;;;;;4995171;28;20465;-76
2021/05/09 09:40:14;;;;;;;4.00;1.83;;;24.00;1.00;;;;;;4994892;28;20508;-76
2021/05/09 09:42:45;;;;;;;4.67;2.03;;;24.10;1.00;;;;;;4995378;28;20485;-76
2021/05/09 09:45:17;;;;;;;1.67;1.57;;;;;;;;;;4995129;28;20405;-76
2021/05/09 09:47:54;;;;;;;4.83;1.83;;;24.30;1.00;;;;;;4995251;28;20390;-75
2021/05/09 09:50:43;;;;;;;2.53;1.50;;;24.50;1.00;;;;;;4995119;28;20447;-76
2021/05/09 09:53:39;;;;;;;3.47;1.83;;;24.60;1.00;;;;;;4979962;28;20453;-76
2021/05/09 09:56:14;;;;;;;5.40;2.00;;;24.80;1.00;;;;;;4994658;28;20503;-76
2021/05/09 09:58:59;;;;;;;3.10;1.97;;;24.90;1.00;;;;;;4975546;28;20456;-76
2021/05/09 10:01:33;;;;;;;3.80;1.83;;;25.10;1.00;;;;;;4977552;28;20895;-76
2021/05/09 10:04:07;;;;;;;1.60;1.20;;;25.30;1.00;;;;;;4995093;28;20392;-77
2021/05/09 10:06:38;;;;;;;4.83;1.40;;;25.40;1.00;;;;;;4979387;28;20427;-77
2021/05/09 10:09:05;;;;;;;1.63;1.30;;;25.60;1.00;;;;;;4975783;28;20820;-77
2021/05/09 10:11:32;;;;;;;2.80;1.40;;;25.90;1.00;;;;;;4981737;28;20501;-76
2021/05/09 10:13:59;;;;;;;2.13;1.10;;;26.10;1.00;;;;;;4994625;28;20495;-77
2021/05/09 10:16:30;;;;;;;1.60;1.10;;;26.20;1.00;;;;;;4994490;28;20420;-76
2021/05/09 10:19:05;;;;;;;2.07;1.30;;;26.50;1.00;;;;;;4995469;28;20396;-77
2021/05/09 10:21:40;;;;;;;2.30;1.13;;;26.60;1.00;;;;;;4994484;28;20969;-76
2021/05/09 10:24:21;;;;;;;1.30;1.20;;;26.80;1.00;;;;;;5011479;28;20740;-77
2021/05/09 10:27:11;;;;;;;1.40;1.30;;;27.00;1.00;;;;;;5013838;28;20406;-76
2021/05/09 10:29:39;;;;;;;1.97;1.33;;;27.10;1.00;;;;;;4974844;28;20911;-76
2021/05/09 10:32:20;;;;;;;5.57;1.70;;;;;;;;;;4991349;28;20497;-77
2021/05/09 10:34:56;;;;;;;3.57;1.67;;;27.60;1.00;;;;;;4994182;28;20440;-76
2021/05/09 10:40:43;;;;;;;1.60;1.50;;;27.90;1.00;;;;;;4995070;28;20456;-78
2021/05/09 10:43:29;;;;;;;1.40;1.30;;;27.90;1.00;;;;;;4994626;28;20456;-77
2021/05/09 10:45:55;;;;;;;5.60;1.30;;;28.00;1.00;;;;;;4993002;28;20520;-76
2021/05/09 10:48:30;;;;;;;1.33;1.23;;;27.80;1.00;;;;;;4994652;28;20504;-76
2021/05/09 10:51:25;;;;;;;4.47;1.33;;;27.70;1.00;;;;;;4995122;28;20417;-77
2021/05/09 10:53:52;;;;;;;1.77;1.10;;;27.60;1.00;;;;;;4997228;28;20460;-78
2021/05/09 10:56:25;;;;;;;3.00;1.47;;;27.60;1.00;;;;;;4997703;28;20416;-77
2021/05/09 10:58:57;;;;;;;2.63;1.33;;;27.70;1.00;;;;;;4998092;28;20393;-77
2021/05/09 11:01:27;;;;;;;1.30;1.20;;;;;;;;;;4998011;28;20394;-78
2021/05/09 11:04:00;;;;;;;2.93;1.40;;;27.80;1.00;;;;;;4998082;28;20450;-77
2021/05/09 11:06:26;;;;;;;1.30;1.20;;;;;;;;;;4991753;28;20418;-77
2021/05/09 11:08:58;;;;;;;1.43;1.03;;;27.70;1.00;;;;;;4985400;28;20436;-78
2021/05/09 11:11:37;;;;;;;3.70;1.60;;;27.70;1.00;;;;;;4978572;28;20410;-78
2021/05/09 11:14:31;;;;;;;1.63;1.10;;;27.70;1.00;;;;;;4982019;28;20823;-78
2021/05/09 11:17:10;;;;;;;4.63;1.60;;;27.80;1.00;;;;;;4990127;28;20769;-78
2021/05/09 11:19:51;;;;;;;1.87;1.50;;;27.70;1.00;;;;;;4997671;28;20419;-77
2021/05/09 11:22:43;;;;;;;1.43;1.20;;;27.70;1.00;;;;;;4997217;28;20543;-78
2021/05/09 11:25:09;;;;;;;1.97;1.60;;;27.90;1.00;;;;;;4997669;28;20391;-79
2021/05/09 11:27:35;;;;;;;3.63;1.30;;;;;;;;;;4996328;28;20511;-77
2021/05/09 11:30:02;;;;;;;2.10;1.20;;;;;;;;;;4998083;28;20779;-76
2021/05/09 11:32:29;;;;;;;4.87;1.53;;;28.20;1.00;;;;;;4998098;28;20436;-76
2021/05/09 11:35:02;;;;;;;5.77;1.40;;;28.20;1.00;;;;;;4997536;28;20424;-75
2021/05/09 11:37:40;;;;;;;3.47;1.37;;;28.20;1.00;;;;;;4996899;28;20479;-75
2021/05/09 11:40:10;;;;;;;1.67;1.30;;;28.40;1.00;;;;;;4997686;28;20485;-76
2021/05/09 11:42:38;;;;;;;1.73;1.17;;;28.40;1.00;;;;;;4997604;28;20492;-76
2021/05/09 11:45:08;;;;;;;1.93;1.37;;;28.30;1.00;;;;;;4997684;28;20434;-75
2021/05/09 11:47:35;;;;;;;3.90;1.47;;;28.20;1.00;;;;;;4997647;28;20492;-76
2021/05/09 11:50:08;;;;;;;1.90;1.33;;;28.20;1.00;;;;;;4996949;28;20427;-76
2021/05/09 11:52:50;;;;;;;1.30;1.20;;;28.30;1.00;;;;;;4997158;28;20824;-76
2021/05/09 11:55:16;;;;;;;2.43;1.20;;;;;;;;;;4996977;28;20529;-76
2021/05/09 11:58:10;;;;;;;0.90;0.90;;;28.50;1.00;;;;;;4997352;28;20392;-77
2021/05/09 12:00:42;;;;;;;0.90;0.90;;;28.60;1.00;;;;;;4997169;28;20484;-77
2021/05/09 12:03:22;;;;;;;3.60;1.40;;;28.60;1.00;;;;;;4996765;28;20431;-77
2021/05/09 12:05:48;;;;;;;1.30;1.20;;;28.80;1.00;;;;;;4990789;28;20478;-75
2021/05/09 12:08:18;;;;;;;1.23;1.13;;;28.90;1.00;;;;;;4985274;28;20412;-75
2021/05/09 12:10:45;;;;;;;1.30;1.20;;;;;;;;;;4992361;28;20657;-75
2021/05/09 12:13:27;;;;;;;1.30;1.20;;;29.20;1.00;;;;;;4996988;28;20474;-76
2021/05/09 12:16:25;;;;;;;1.80;1.23;;;29.30;1.00;;;;;;4996062;28;20438;-76
2021/05/09 12:19:05;;;;;;;3.43;1.50;;;29.50;1.00;;;;;;4996553;28;20927;-75
2021/05/09 12:21:32;;;;;;;2.37;1.33;;;29.50;1.00;;;;;;4996303;28;20782;-76
2021/05/09 12:24:05;;;;;;;1.80;1.37;;;29.50;1.00;;;;;;4996764;28;20900;-76
2021/05/09 12:26:31;;;;;;;5.40;1.50;;;29.60;1.00;;;;;;4996263;28;20424;-75
2021/05/09 12:29:46;;;;;;;4.97;1.30;;;29.70;1.00;;;;;;4996521;28;20487;-75
2021/05/09 12:32:25;;;;;;;2.33;1.27;;;29.80;1.00;;;;;;4973514;28;20979;-76
2021/05/09 12:35:10;;;;;;;1.07;1.03;;;29.70;1.00;;;;;;4975093;28;20526;-76
2021/05/09 12:37:44;;;;;;;1.53;1.30;;;;;;;;;;4974767;28;20792;-76
2021/05/09 12:40:20;;;;;;;3.07;1.20;;;29.80;1.00;;;;;;4956472;28;20465;-76
2021/05/09 12:43:08;;;;;;;4.83;1.17;;;30.00;1.00;;;;;;4955772;29;20414;-76
2021/05/09 12:45:48;;;;;;;3.00;1.20;;;29.90;1.00;;;;;;4955714;28;20485;-75
2021/05/09 12:48:17;;;;;;;1.80;1.10;;;30.00;1.00;;;;;;4961331;28;20490;-75
2021/05/09 12:50:53;;;;;;;2.70;1.30;;;30.00;1.00;;;;;;4974780;28;20488;-76
2021/05/09 12:53:50;;;;;;;2.43;1.10;;;30.20;1.00;;;;;;4958615;28;20472;-75
2021/05/09 12:56:27;;;;;;;5.90;1.63;;;30.40;1.00;;;;;;4965485;28;20538;-75
2021/05/09 12:59:12;;;;;;;6.93;1.20;;;30.60;1.00;;;;;;4974327;28;20940;-75
2021/05/09 13:01:40;;;;;;;1.97;1.13;;;30.70;1.00;;;;;;4974638;28;20397;-76
2021/05/09 13:04:32;;;;;;;3.40;1.33;;;30.80;1.00;;;;;;4974016;28;20440;-76
2021/05/09 13:07:00;;;;;;;6.20;1.07;;;31.00;1.00;;;;;;4993884;28;20447;-75
2021/05/09 13:09:30;;;;;;;1.30;1.20;;;30.90;1.00;;;;;;4991476;28;20437;-76
2021/05/09 13:11:58;;;;;;;9.40;1.43;;;30.80;1.00;;;;;;4976337;28;20412;-76
2021/05/09 13:14:24;;;;;;;6.40;1.30;;;30.80;1.00;;;;;;4993512;28;20504;-76
2021/05/09 13:16:50;;;;;;;3.43;1.30;;;30.80;1.00;;;;;;4995524;28;20425;-76
2021/05/09 13:19:15;;;;;;;3.90;1.10;;;30.80;1.00;;;;;;4995796;28;20197;-76
2021/05/09 13:21:42;;;;;;;1.43;1.03;;;30.70;1.00;;;;;;4995806;28;20158;-76
2021/05/09 13:24:25;;;;;;;7.00;1.60;;;30.40;1.00;;;;;;4976782;28;20172;-76
2021/05/09 13:27:07;;;;;;;4.10;1.30;;;30.30;1.00;;;;;;4995641;28;20395;-76
2021/05/09 13:29:44;;;;;;;2.70;1.20;;;;;;;;;;4992457;28;20797;-76
2021/05/09 13:32:10;;;;;;;3.30;1.20;;;30.40;1.00;;;;;;4976359;28;20589;-77
2021/05/09 13:34:49;;;;;;;1.47;1.10;;;30.50;1.00;;;;;;4976066;28;20454;-76
2021/05/09 13:37:16;;;;;;;1.90;0.90;;;;;;;;;;4975992;28;20400;-75
2021/05/09 13:39:42;;;;;;;1.97;1.20;;;;;;;;;;4975555;28;20456;-75
2021/05/09 13:42:08;;;;;;;5.33;1.33;;;;;;;;;;4975697;28;20485;-76
2021/05/09 13:44:34;;;;;;;1.30;1.20;;;;;;;;;;4986258;28;20424;-75
2021/05/09 13:47:00;;;;;;;3.60;1.53;;;;;;;;;;4994051;28;20926;-75
2021/05/09 13:49:26;;;;;;;1.63;1.07;;;;;;;;;;4994045;28;20885;-75
2021/05/09 13:51:52;;;;;;;3.07;1.43;;;30.70;1.00;;;;;;4995219;28;20419;-75
2021/05/09 13:54:18;;;;;;;8.13;1.50;;;;;;;;;;4994811;28;20462;-77
2021/05/09 13:56:44;;;;;;;1.20;1.10;;;30.70;1.00;;;;;;4995178;28;20175;-77
2021/05/09 13:59:10;;;;;;;4.93;1.50;;;30.70;1.00;;;;;;4994680;28;20408;-75
2021/05/09 14:01:36;;;;;;;2.13;1.40;;;;;;;;;;4994770;28;20251;-75
2021/05/09 14:04:02;;;;;;;2.73;1.40;;;;;;;;;;4992402;28;20440;-75
2021/05/09 14:06:28;;;;;;;6.00;1.30;;;;;;;;;;4986332;28;20424;-76
2021/05/09 14:08:54;;;;;;;2.57;1.33;;;31.00;1.00;;;;;;4986524;28;20420;-75
2021/05/09 14:11:20;;;;;;;3.03;1.27;;;;;;;;;;4994462;28;20420;-75
2021/05/09 14:13:46;;;;;;;3.07;1.57;;;;;;;;;;4994659;28;20457;-76
2021/05/09 14:16:13;;;;;;;2.67;1.17;;;;;;;;;;4994312;28;20975;-76
2021/05/09 14:18:44;;;;;;;7.63;1.20;;;31.20;1.00;;;;;;4994279;28;20411;-76
2021/05/09 14:21:20;;;;;;;3.67;1.10;;;31.20;1.00;;;;;;4994500;28;20511;-77
2021/05/09 14:23:46;;;;;;;1.10;1.00;;;31.20;1.00;;;;;;4975417;28;20484;-76
2021/05/09 14:26:12;;;;;;;2.90;1.70;;;;;;;;;;4982905;28;20532;-75
2021/05/09 14:28:38;;;;;;;2.77;1.40;;;;;;;;;;4994343;28;20865;-76